createdAt,value
2023-04-11T00:01:55.546Z,13.11
2023-04-11T00:04:25.562Z,13.18
2023-04-11T00:06:53.585Z,13.09
2023-04-11T00:09:21.152Z,12.97
2023-04-11T00:11:48.592Z,12.84
2023-04-11T00:14:15.929Z,12.92
2023-04-11T00:16:43.402Z,12.99
2023-04-11T00:19:11.128Z,12.91
2023-04-11T00:21:40.108Z,12.92
2023-04-11T00:24:08.313Z,12.98
2023-04-11T00:26:36.384Z,12.95
2023-04-11T00:29:03.881Z,12.68
2023-04-11T00:31:31.575Z,12.79
2023-04-11T00:33:59.139Z,12.73
2023-04-11T00:36:27.301Z,12.72
2023-04-11T00:38:55.568Z,12.73
2023-04-11T00:41:24.397Z,12.76
2023-04-11T00:43:54.313Z,12.71
2023-04-11T00:46:22.323Z,12.77
2023-04-11T00:48:50.262Z,12.73
2023-04-11T00:51:19.252Z,12.60
2023-04-11T00:53:47.056Z,12.45
2023-04-11T00:56:14.443Z,12.42
2023-04-11T00:58:42.381Z,12.45
2023-04-11T01:01:10.344Z,12.61
2023-04-11T01:03:39.524Z,12.64
2023-04-11T01:06:11.337Z,12.70
2023-04-11T01:08:39.962Z,12.64
2023-04-11T01:11:09.225Z,12.76
2023-04-11T01:13:39.329Z,12.60
2023-04-11T01:16:07.522Z,12.48
2023-04-11T01:18:35.125Z,12.66
2023-04-11T01:21:03.152Z,12.68
2023-04-11T01:23:30.532Z,12.70
2023-04-11T01:25:58.484Z,12.67
2023-04-11T01:28:26.256Z,12.72
2023-04-11T01:30:54.164Z,12.85
2023-04-11T01:33:22.214Z,12.75
2023-04-11T01:35:50.535Z,12.70
2023-04-11T01:38:18.526Z,12.77
2023-04-11T01:40:46.186Z,12.73
2023-04-11T01:43:14.221Z,12.69
2023-04-11T01:45:43.103Z,12.64
2023-04-11T01:48:10.781Z,12.49
2023-04-11T01:50:39.158Z,12.35
2023-04-11T01:53:06.984Z,12.34
2023-04-11T01:55:34.387Z,12.42
2023-04-11T01:58:02.149Z,12.46
2023-04-11T02:00:30.369Z,12.56
2023-04-11T02:02:58.275Z,12.55
2023-04-11T02:05:26.197Z,12.42
2023-04-11T02:07:56.189Z,12.27
2023-04-11T02:10:24.086Z,12.11
2023-04-11T02:12:51.486Z,12.20
2023-04-11T02:15:19.232Z,12.30
2023-04-11T02:17:47.700Z,12.42
2023-04-11T02:20:15.588Z,12.38
2023-04-11T02:22:43.919Z,12.54
2023-04-11T02:25:11.264Z,12.56
2023-04-11T02:27:38.616Z,12.59
2023-04-11T02:30:06.936Z,12.66
2023-04-11T02:32:35.071Z,12.77
2023-04-11T02:35:04.233Z,12.73
2023-04-11T02:37:31.885Z,12.80
2023-04-11T02:39:59.337Z,12.59
2023-04-11T02:42:27.203Z,12.64
2023-04-11T02:44:58.432Z,12.57
2023-04-11T02:47:29.155Z,12.47
2023-04-11T02:50:01.289Z,12.30
2023-04-11T02:52:35.036Z,12.33
2023-04-11T02:55:02.458Z,12.29
2023-04-11T02:57:30.340Z,12.37
2023-04-11T02:59:58.435Z,12.44
2023-04-11T03:02:35.132Z,12.56
2023-04-11T03:05:06.476Z,12.45
2023-04-11T03:07:38.565Z,12.17
2023-04-11T03:10:07.377Z,12.15
2023-04-11T03:12:34.801Z,12.23
2023-04-11T03:15:05.447Z,12.44
2023-04-11T03:17:33.793Z,12.63
2023-04-11T03:20:02.084Z,12.70
2023-04-11T03:22:30.902Z,12.70
2023-04-11T03:24:59.778Z,12.73
2023-04-11T03:27:27.668Z,12.76
2023-04-11T03:29:59.907Z,12.68
2023-04-11T03:32:36.002Z,12.59
2023-04-11T03:35:04.284Z,12.56
2023-04-11T03:37:32.935Z,12.50
2023-04-11T03:40:00.674Z,12.60
2023-04-11T03:42:28.298Z,12.58
2023-04-11T03:45:00.306Z,12.55
2023-04-11T03:47:28.294Z,12.55
2023-04-11T03:49:55.784Z,12.47
2023-04-11T03:52:24.022Z,12.48
2023-04-11T03:54:51.995Z,12.52
2023-04-11T03:57:19.839Z,12.25
2023-04-11T03:59:48.095Z,12.32
2023-04-11T04:02:16.137Z,12.29
2023-04-11T04:04:55.311Z,12.21
2023-04-11T04:07:36.722Z,12.22
2023-04-11T04:10:14.677Z,12.28
2023-04-11T04:12:44.452Z,12.33
2023-04-11T04:15:15.433Z,12.47
2023-04-11T04:17:46.262Z,12.53
2023-04-11T04:20:20.395Z,12.65
2023-04-11T04:22:53.962Z,12.69
2023-04-11T04:25:30.306Z,12.67
2023-04-11T04:28:01.017Z,12.64
2023-04-11T04:30:38.190Z,12.62
2023-04-11T04:33:12.409Z,12.68
2023-04-11T04:35:44.049Z,12.73
2023-04-11T04:38:17.940Z,12.46
2023-04-11T04:40:54.996Z,12.36
2023-04-11T04:43:24.394Z,12.14
2023-04-11T04:45:57.373Z,12.27
2023-04-11T04:48:34.839Z,12.35
2023-04-11T04:51:03.869Z,12.47
2023-04-11T04:53:34.903Z,12.46
2023-04-11T04:56:02.515Z,12.52
2023-04-11T04:58:32.230Z,12.44
2023-04-11T05:01:02.896Z,12.45
2023-04-11T05:03:36.079Z,12.38
2023-04-11T05:06:06.508Z,12.33
2023-04-11T05:08:34.447Z,12.34
2023-04-11T05:11:03.598Z,12.53
2023-04-11T05:13:34.371Z,12.54
2023-04-11T05:16:04.406Z,12.48
2023-04-11T05:18:32.506Z,12.61
2023-04-11T05:21:00.207Z,12.61
2023-04-11T05:23:34.390Z,12.67
2023-04-11T05:26:03.506Z,12.66
2023-04-11T05:28:33.243Z,12.95
2023-04-11T05:31:02.375Z,12.93
2023-04-11T05:33:30.826Z,12.96
2023-04-11T05:36:00.054Z,13.04
2023-04-11T05:38:27.927Z,13.23
2023-04-11T05:40:55.214Z,13.26
2023-04-11T05:43:23.036Z,13.29
2023-04-11T05:45:51.270Z,13.38
2023-04-11T05:48:19.839Z,13.46
2023-04-11T05:50:50.111Z,13.50
2023-04-11T05:53:18.716Z,13.59
2023-04-11T05:55:46.466Z,13.82
2023-04-11T05:58:14.248Z,13.99
2023-04-11T06:00:41.936Z,14.29
2023-04-11T06:03:09.826Z,14.42
2023-04-11T06:05:37.758Z,14.65
2023-04-11T06:08:08.426Z,14.53
2023-04-11T06:10:36.157Z,14.77
2023-04-11T06:13:09.395Z,15.07
2023-04-11T06:15:37.246Z,15.42
2023-04-11T06:18:05.089Z,15.53
2023-04-11T06:20:32.476Z,15.59
2023-04-11T06:23:01.444Z,15.55
2023-04-11T06:25:29.206Z,15.34
2023-04-11T06:27:57.543Z,15.65
2023-04-11T06:30:25.539Z,15.58
2023-04-11T06:32:53.866Z,15.53
2023-04-11T06:35:24.879Z,15.59
2023-04-11T06:37:52.654Z,15.51
2023-04-11T06:40:20.573Z,15.37
2023-04-11T06:42:48.552Z,15.40
2023-04-11T06:45:16.491Z,15.54
2023-04-11T06:47:44.380Z,15.65
2023-04-11T06:50:12.255Z,16.01
2023-04-11T06:52:39.690Z,16.25
2023-04-11T06:55:07.753Z,16.37
2023-04-11T06:57:35.678Z,16.52
2023-04-11T07:00:06.993Z,16.44
2023-04-11T07:02:36.069Z,16.42
2023-04-11T07:05:04.125Z,16.45
2023-04-11T07:07:31.442Z,16.30
2023-04-11T07:09:59.627Z,16.01
2023-04-11T07:12:26.938Z,15.71
2023-04-11T07:14:54.688Z,16.18
2023-04-11T07:17:22.442Z,16.75
2023-04-11T07:19:49.787Z,16.72
2023-04-11T07:22:17.634Z,15.75
2023-04-11T07:24:46.639Z,16.24
2023-04-11T07:27:17.671Z,16.19
2023-04-11T07:29:46.368Z,16.29
2023-04-11T07:32:14.495Z,16.26
2023-04-11T07:34:42.269Z,16.25
2023-04-11T07:37:10.265Z,16.24
2023-04-11T07:39:38.401Z,15.76
2023-04-11T07:42:07.109Z,16.28
2023-04-11T07:44:34.391Z,16.64
2023-04-11T07:47:02.209Z,17.09
2023-04-11T07:49:30.179Z,16.49
2023-04-11T07:51:57.974Z,16.45
2023-04-11T07:54:28.515Z,17.27
2023-04-11T07:56:57.146Z,17.50
2023-04-11T07:59:25.022Z,17.45
2023-04-11T08:02:01.085Z,17.95
2023-04-11T08:04:32.727Z,17.88
2023-04-11T08:07:01.171Z,17.95
2023-04-11T08:09:29.333Z,17.98
2023-04-11T08:11:57.286Z,17.83
2023-04-11T08:14:24.624Z,17.92
2023-04-11T08:16:53.183Z,17.74
2023-04-11T08:19:21.992Z,18.18
2023-04-11T08:21:50.224Z,17.82
2023-04-11T08:24:17.986Z,17.88
2023-04-11T08:26:45.962Z,17.53
2023-04-11T08:29:13.721Z,17.14
2023-04-11T08:31:44.676Z,18.09
2023-04-11T08:34:12.807Z,18.31
2023-04-11T08:36:41.600Z,18.71
2023-04-11T08:39:09.417Z,18.56
2023-04-11T08:41:38.090Z,18.96
2023-04-11T08:44:05.802Z,18.72
2023-04-11T08:46:40.723Z,18.96
2023-04-11T08:49:08.270Z,19.07
2023-04-11T08:51:36.230Z,18.97
2023-04-11T08:54:07.148Z,18.91
2023-04-11T08:56:36.034Z,18.45
2023-04-11T08:59:04.355Z,18.80
2023-04-11T09:01:32.792Z,19.39
2023-04-11T09:04:01.403Z,18.81
2023-04-11T09:06:30.907Z,18.71
2023-04-11T09:08:58.921Z,19.28
2023-04-11T09:11:27.469Z,19.37
2023-04-11T09:14:13.237Z,18.89
2023-04-11T09:16:53.009Z,19.49
2023-04-11T09:19:27.554Z,19.16
2023-04-11T09:21:56.723Z,19.77
2023-04-11T09:24:26.384Z,18.91
2023-04-11T09:27:10.274Z,18.98
2023-04-11T09:29:38.628Z,18.54
2023-04-11T09:32:06.438Z,19.56
2023-04-11T09:34:37.515Z,19.14
2023-04-11T09:37:06.481Z,19.06
2023-04-11T09:39:33.948Z,18.93
2023-04-11T09:42:03.152Z,20.36
2023-04-11T09:44:38.405Z,20.72
2023-04-11T09:47:05.803Z,20.85
2023-04-11T09:49:35.036Z,21.95
2023-04-11T09:52:03.163Z,21.45
2023-04-11T09:54:32.451Z,20.94
2023-04-11T09:57:00.504Z,21.25
2023-04-11T09:59:29.223Z,20.44
2023-04-11T10:01:57.737Z,20.95
2023-04-11T10:04:28.180Z,20.49
2023-04-11T10:07:09.167Z,19.54
2023-04-11T10:09:38.828Z,20.47
2023-04-11T10:12:06.227Z,21.41
2023-04-11T10:14:37.055Z,22.77
2023-04-11T10:17:12.897Z,24.27
2023-04-11T10:19:40.961Z,21.49
2023-04-11T10:22:09.209Z,22.98
2023-04-11T10:24:37.131Z,23.36
2023-04-11T10:27:04.797Z,24.15
2023-04-11T10:29:40.644Z,25.20
2023-04-11T10:32:14.931Z,25.58
2023-04-11T10:34:51.779Z,26.04
2023-04-11T10:37:32.680Z,26.04
2023-04-11T10:40:10.049Z,26.60
2023-04-11T10:42:39.865Z,26.36
2023-04-11T10:45:24.650Z,27.51
2023-04-11T10:48:11.813Z,26.02
2023-04-11T10:50:42.061Z,24.32
2023-04-11T10:53:14.413Z,24.99
2023-04-11T10:55:49.533Z,26.29
2023-04-11T10:58:19.711Z,24.97
2023-04-11T11:00:52.350Z,24.79
2023-04-11T11:03:21.334Z,25.60
2023-04-11T11:05:58.657Z,23.88
2023-04-11T11:08:30.701Z,23.31
2023-04-11T11:11:02.234Z,24.46
2023-04-11T11:13:40.195Z,24.75
2023-04-11T11:16:08.383Z,23.26
2023-04-11T11:18:37.455Z,23.21
2023-04-11T11:21:07.346Z,23.06
2023-04-11T11:23:36.879Z,22.78
2023-04-11T11:26:04.834Z,22.91
2023-04-11T11:28:32.357Z,23.21
2023-04-11T11:31:00.147Z,23.18
2023-04-11T11:33:27.638Z,23.10
2023-04-11T11:36:02.452Z,24.19
2023-04-11T11:38:30.518Z,24.15
2023-04-11T11:40:59.373Z,24.37
2023-04-11T11:43:27.596Z,24.20
2023-04-11T11:46:30.307Z,23.85
2023-04-11T11:49:00.321Z,23.09
2023-04-11T11:51:39.310Z,23.33
2023-04-11T11:54:10.270Z,23.40
2023-04-11T11:56:38.071Z,23.69
2023-04-11T11:59:06.102Z,24.48
2023-04-11T12:01:37.836Z,24.59
2023-04-11T12:04:11.989Z,24.48
2023-04-11T12:06:40.012Z,23.58
2023-04-11T12:09:08.295Z,22.93
2023-04-11T12:11:43.235Z,23.55
2023-04-11T12:14:22.200Z,24.41
2023-04-11T12:16:53.423Z,24.16
2023-04-11T12:19:21.743Z,23.90
2023-04-11T12:21:49.068Z,24.49
2023-04-11T12:24:16.603Z,25.08
2023-04-11T12:27:05.605Z,23.91
2023-04-11T12:29:34.501Z,24.66
2023-04-11T12:32:02.166Z,25.26
2023-04-11T12:34:30.120Z,25.81
2023-04-11T12:36:58.176Z,26.86
2023-04-11T12:39:26.037Z,26.23
2023-04-11T12:41:53.793Z,25.19
2023-04-11T12:44:21.556Z,24.76
2023-04-11T12:46:49.257Z,26.44
2023-04-11T12:49:17.461Z,26.73
2023-04-11T12:51:44.808Z,26.17
2023-04-11T12:54:13.092Z,25.20
2023-04-11T12:56:41.564Z,25.00
2023-04-11T12:59:09.583Z,25.69
2023-04-11T13:01:37.575Z,27.52
2023-04-11T13:04:05.940Z,27.33
2023-04-11T13:06:33.602Z,27.36
2023-04-11T13:09:02.391Z,26.80
2023-04-11T13:11:30.754Z,26.88
2023-04-11T13:13:58.472Z,26.10
2023-04-11T13:16:26.135Z,26.16
2023-04-11T13:18:54.060Z,26.17
2023-04-11T13:21:22.425Z,25.62
2023-04-11T13:23:50.743Z,25.60
2023-04-11T13:26:18.793Z,25.58
2023-04-11T13:28:46.404Z,25.41
2023-04-11T13:31:14.365Z,26.11
2023-04-11T13:33:42.865Z,26.95
2023-04-11T13:36:10.901Z,26.14
2023-04-11T13:38:38.802Z,26.18
2023-04-11T13:41:06.501Z,24.80
2023-04-11T13:43:34.242Z,23.95
2023-04-11T13:46:01.700Z,25.21
2023-04-11T13:48:29.432Z,24.59
2023-04-11T13:50:58.021Z,24.32
2023-04-11T13:53:25.333Z,24.98
2023-04-11T13:55:53.063Z,25.62
2023-04-11T13:58:20.854Z,27.06
2023-04-11T14:00:50.480Z,25.44
2023-04-11T14:03:18.104Z,25.86
2023-04-11T14:05:45.995Z,26.95
2023-04-11T14:08:13.812Z,25.64
2023-04-11T14:10:41.701Z,26.06
2023-04-11T14:15:38.980Z,25.53
2023-04-11T14:18:07.311Z,25.18
2023-04-11T14:20:34.778Z,25.63
2023-04-11T14:23:02.461Z,25.19
2023-04-11T14:25:30.831Z,25.04
2023-04-11T14:27:58.553Z,23.83
2023-04-11T14:30:26.952Z,24.59
2023-04-11T14:32:54.677Z,24.40
2023-04-11T14:35:22.672Z,23.18
2023-04-11T14:37:50.038Z,23.00
2023-04-11T14:40:17.647Z,22.84
2023-04-11T14:42:45.994Z,23.51
2023-04-11T14:45:14.688Z,23.45
2023-04-11T14:47:43.489Z,23.45
2023-04-11T14:50:11.459Z,24.44
2023-04-11T14:52:39.315Z,25.53
2023-04-11T14:55:08.125Z,26.70
2023-04-11T14:57:48.751Z,27.55
2023-04-11T15:00:20.397Z,28.69
2023-04-11T15:02:55.797Z,30.42
2023-04-11T15:05:23.888Z,31.82
2023-04-11T15:07:53.114Z,31.63
2023-04-11T15:10:21.930Z,32.25
2023-04-11T15:12:50.403Z,32.42
2023-04-11T15:15:17.876Z,29.87
2023-04-11T15:17:47.024Z,27.96
2023-04-11T15:20:15.346Z,27.97
2023-04-11T15:22:44.220Z,27.71
2023-04-11T15:25:13.378Z,28.35
2023-04-11T15:27:40.919Z,27.23
2023-04-11T15:30:08.836Z,27.72
2023-04-11T15:32:36.117Z,27.37
2023-04-11T15:35:03.870Z,26.61
2023-04-11T15:37:31.473Z,26.72
2023-04-11T15:39:59.810Z,27.01
2023-04-11T15:42:27.195Z,27.34
2023-04-11T15:44:54.685Z,27.35
2023-04-11T15:47:22.947Z,27.29
2023-04-11T15:49:51.112Z,27.56
2023-04-11T15:52:21.298Z,27.85
2023-04-11T15:54:48.963Z,29.23
2023-04-11T15:57:18.357Z,29.59
2023-04-11T15:59:45.848Z,30.70
2023-04-11T16:02:15.351Z,30.96
2023-04-11T16:04:47.218Z,30.74
2023-04-11T16:07:18.548Z,32.21
2023-04-11T16:09:46.624Z,30.58
2023-04-11T16:12:14.409Z,31.11
2023-04-11T16:14:42.366Z,31.06
2023-04-11T16:17:10.480Z,31.25
2023-04-11T16:19:39.121Z,29.62
2023-04-11T16:22:06.799Z,29.14
2023-04-11T16:24:34.555Z,29.16
2023-04-11T16:27:02.736Z,28.99
2023-04-11T16:29:30.814Z,27.05
2023-04-11T16:31:58.699Z,27.78
2023-04-11T16:34:26.398Z,27.79
2023-04-11T16:36:54.174Z,26.96
2023-04-11T16:39:21.840Z,25.06
2023-04-11T16:41:49.749Z,24.24
2023-04-11T16:44:18.232Z,23.17
2023-04-11T16:46:46.051Z,23.15
2023-04-11T16:49:13.833Z,22.90
2023-04-11T16:51:41.568Z,22.70
2023-04-11T16:54:10.842Z,22.03
2023-04-11T16:56:38.222Z,21.91
2023-04-11T16:59:05.921Z,22.05
2023-04-11T17:01:33.311Z,22.41
2023-04-11T17:04:01.589Z,21.93
2023-04-11T17:06:30.222Z,21.96
2023-04-11T17:08:58.104Z,21.39
2023-04-11T17:11:26.034Z,21.24
2023-04-11T17:13:55.267Z,21.63
2023-04-11T17:16:23.498Z,21.48
2023-04-11T17:18:51.363Z,21.29
2023-04-11T17:21:19.259Z,21.01
2023-04-11T17:23:47.206Z,20.91
2023-04-11T17:26:14.767Z,20.58
2023-04-11T17:28:42.530Z,20.49
2023-04-11T17:31:11.862Z,20.51
2023-04-11T17:33:39.989Z,20.63
2023-04-11T17:36:08.250Z,20.57
2023-04-11T17:38:37.395Z,20.62
2023-04-11T17:41:13.721Z,20.60
2023-04-11T17:43:43.783Z,20.66
2023-04-11T17:46:12.926Z,20.43
2023-04-11T17:48:42.163Z,20.28
2023-04-11T17:51:10.102Z,20.16
2023-04-11T17:53:38.143Z,20.12
2023-04-11T17:56:08.491Z,20.02
2023-04-11T17:58:36.313Z,19.87
2023-04-11T18:01:04.799Z,19.80
2023-04-11T18:03:35.164Z,19.70
2023-04-11T18:06:03.466Z,19.53
2023-04-11T18:08:48.912Z,19.46
2023-04-11T18:11:17.924Z,19.34
2023-04-11T18:13:46.995Z,19.32
2023-04-11T18:16:18.392Z,19.25
2023-04-11T18:18:46.481Z,19.18
2023-04-11T18:21:14.600Z,19.12
2023-04-11T18:23:42.039Z,19.01
2023-04-11T18:26:09.460Z,18.88
2023-04-11T18:28:37.475Z,18.96
2023-04-11T18:31:05.900Z,18.85
2023-04-11T18:33:33.974Z,18.81
2023-04-11T18:36:02.571Z,18.95
2023-04-11T18:38:30.480Z,18.70
2023-04-11T18:41:02.154Z,18.56
2023-04-11T18:43:32.761Z,18.47
2023-04-11T18:46:03.959Z,18.25
2023-04-11T18:48:32.542Z,18.11
2023-04-11T18:51:00.962Z,18.10
2023-04-11T18:53:30.156Z,18.10
2023-04-11T18:55:58.168Z,18.07
2023-04-11T18:58:27.010Z,17.98
2023-04-11T19:00:55.542Z,17.89
2023-04-11T19:03:24.342Z,18.02
2023-04-11T19:05:52.956Z,17.93
2023-04-11T19:08:21.055Z,17.95
2023-04-11T19:10:48.896Z,17.75
2023-04-11T19:13:16.190Z,17.62
2023-04-11T19:15:44.018Z,17.34
2023-04-11T19:18:11.874Z,17.05
2023-04-11T19:20:39.329Z,17.01
2023-04-11T19:23:07.476Z,17.15
2023-04-11T19:25:35.997Z,17.27
2023-04-11T19:28:04.011Z,17.09
2023-04-11T19:30:32.217Z,16.89
2023-04-11T19:33:01.271Z,16.83
2023-04-11T19:35:28.693Z,16.66
2023-04-11T19:37:56.358Z,16.39
2023-04-11T19:40:24.308Z,16.48
2023-04-11T19:42:52.438Z,16.46
2023-04-11T19:45:20.154Z,16.36
2023-04-11T19:47:48.066Z,16.42
2023-04-11T19:50:15.747Z,16.36
2023-04-11T19:52:43.848Z,16.31
2023-04-11T19:55:12.502Z,16.21
2023-04-11T19:57:41.133Z,16.15
2023-04-11T20:00:14.080Z,16.10
2023-04-11T20:02:46.599Z,16.05
2023-04-11T20:05:16.256Z,16.09
2023-04-11T20:07:45.190Z,15.97
2023-04-11T20:10:14.632Z,15.95
2023-04-11T20:12:41.972Z,15.85
2023-04-11T20:15:11.345Z,15.86
2023-04-11T20:17:39.616Z,15.77
2023-04-11T20:20:12.355Z,15.68
2023-04-11T20:22:41.076Z,15.59
2023-04-11T20:25:11.796Z,15.51
2023-04-11T20:27:39.906Z,15.46
2023-04-11T20:30:09.956Z,15.41
2023-04-11T20:32:37.811Z,15.36
2023-04-11T20:35:06.046Z,15.34
2023-04-11T20:37:35.224Z,15.41
2023-04-11T20:40:03.284Z,15.38
2023-04-11T20:42:31.876Z,15.38
2023-04-11T20:45:10.525Z,15.35
2023-04-11T20:47:39.731Z,15.41
2023-04-11T20:50:09.039Z,15.22
2023-04-11T20:52:41.279Z,15.35
2023-04-11T20:55:10.145Z,15.29
2023-04-11T20:57:38.606Z,15.37
2023-04-11T21:00:14.577Z,15.26
2023-04-11T21:02:44.262Z,15.20
2023-04-11T21:05:13.617Z,15.17
2023-04-11T21:07:42.188Z,15.10
2023-04-11T21:10:10.708Z,15.06
2023-04-11T21:12:38.358Z,14.99
2023-04-11T21:15:06.844Z,15.05
2023-04-11T21:17:35.641Z,15.09
2023-04-11T21:20:17.953Z,14.83
2023-04-11T21:22:49.766Z,14.91
2023-04-11T21:25:17.684Z,14.88
2023-04-11T21:27:45.530Z,14.87
2023-04-11T21:30:13.624Z,14.83
2023-04-11T21:32:41.800Z,14.82
2023-04-11T21:35:10.103Z,14.93
2023-04-11T21:37:38.096Z,14.90
2023-04-11T21:40:06.231Z,14.90
2023-04-11T21:42:33.695Z,14.91
2023-04-11T21:45:01.395Z,14.88
2023-04-11T21:47:28.911Z,14.94
2023-04-11T21:49:56.923Z,14.92
2023-04-11T21:52:24.711Z,15.06
2023-04-11T21:54:51.997Z,15.12
2023-04-11T21:57:19.252Z,14.94
2023-04-11T21:59:46.955Z,14.81
2023-04-11T22:02:15.211Z,14.89
2023-04-11T22:05:01.084Z,14.76
2023-04-11T22:07:38.433Z,14.89
2023-04-11T22:10:09.748Z,15.03
2023-04-11T22:12:38.642Z,15.03
2023-04-11T22:15:06.553Z,14.99
2023-04-11T22:17:34.920Z,14.80
2023-04-11T22:20:05.046Z,14.91
2023-04-11T22:22:33.099Z,15.13
2023-04-11T22:25:00.491Z,14.97
2023-04-11T22:27:29.550Z,15.13
2023-04-11T22:29:57.445Z,15.00
2023-04-11T22:32:25.172Z,15.24
2023-04-11T22:34:52.545Z,15.20
2023-04-11T22:37:19.815Z,15.21
2023-04-11T22:39:47.557Z,15.23
2023-04-11T22:42:15.375Z,15.02
2023-04-11T22:44:43.040Z,15.01
2023-04-11T22:47:16.368Z,15.16
2023-04-11T22:49:45.095Z,15.09
2023-04-11T22:52:18.912Z,15.13
2023-04-11T22:54:47.131Z,15.21
2023-04-11T22:57:15.579Z,15.32
2023-04-11T22:59:43.350Z,15.13
2023-04-11T23:02:10.911Z,15.18
2023-04-11T23:04:38.324Z,15.15
2023-04-11T23:07:05.739Z,15.12
2023-04-11T23:09:33.426Z,15.00
2023-04-11T23:12:00.900Z,15.14
2023-04-11T23:14:31.483Z,15.13
2023-04-11T23:16:59.257Z,14.97
2023-04-11T23:19:27.260Z,15.04
2023-04-11T23:21:55.628Z,14.94
2023-04-11T23:24:23.149Z,15.11
2023-04-11T23:26:50.863Z,15.04
2023-04-11T23:29:19.009Z,14.89
2023-04-11T23:31:46.598Z,14.94
2023-04-11T23:34:14.086Z,15.06
2023-04-11T23:36:42.211Z,15.02
2023-04-11T23:39:09.926Z,15.23
2023-04-11T23:41:38.025Z,15.20
2023-04-11T23:44:05.988Z,15.18
2023-04-11T23:46:33.283Z,15.19
2023-04-11T23:49:01.507Z,15.16
2023-04-11T23:51:29.773Z,15.15
2023-04-11T23:53:57.338Z,15.09
2023-04-11T23:56:26.217Z,15.01
2023-04-11T23:58:54.169Z,14.90
